createdAt,value
2019-01-26T00:00:52.279Z,97940.70
2019-01-26T00:03:23.279Z,97942.36
2019-01-26T00:05:54.575Z,97945.48
2019-01-26T00:08:25.541Z,97941.54
2019-01-26T00:10:56.902Z,97945.86
2019-01-26T00:13:28.001Z,97936.09
2019-01-26T00:16:00.131Z,97947.18
2019-01-26T00:18:31.199Z,97938.91
2019-01-26T00:21:03.826Z,97937.93
2019-01-26T00:23:35.101Z,97930.67
2019-01-26T00:26:06.415Z,97923.78
2019-01-26T00:28:37.880Z,97930.51
2019-01-26T00:31:09.024Z,97929.17
2019-01-26T00:33:43.229Z,97927.20
2019-01-26T00:36:14.109Z,97923.91
2019-01-26T00:38:45.409Z,97922.63
2019-01-26T00:41:16.622Z,97921.76
2019-01-26T00:43:47.991Z,97918.69
2019-01-26T00:46:20.056Z,97921.67
2019-01-26T00:48:52.344Z,97919.70
2019-01-26T00:51:23.387Z,97910.14
2019-01-26T00:53:54.899Z,97927.83
2019-01-26T00:56:25.841Z,97913.80
2019-01-26T00:58:57.145Z,97917.89
2019-01-26T01:01:28.184Z,97913.10
2019-01-26T01:03:59.332Z,97913.62
2019-01-26T01:06:30.491Z,97909.48
2019-01-26T01:09:02.484Z,97907.50
2019-01-26T01:11:34.903Z,97905.84
2019-01-26T01:14:06.641Z,97900.11
2019-01-26T01:16:38.949Z,97893.47
2019-01-26T01:19:10.211Z,97890.66
2019-01-26T01:21:41.497Z,97894.18
2019-01-26T01:24:12.650Z,97890.22
2019-01-26T01:26:45.092Z,97884.66
2019-01-26T01:29:16.401Z,97884.63
2019-01-26T01:31:48.265Z,97885.33
2019-01-26T01:34:19.445Z,97882.86
2019-01-26T01:36:50.699Z,97871.70
2019-01-26T01:39:21.929Z,97871.07
2019-01-26T01:41:53.990Z,97865.80
2019-01-26T01:44:25.045Z,97869.58
2019-01-26T01:46:56.106Z,97857.22
2019-01-26T01:49:27.408Z,97848.94
2019-01-26T01:51:58.565Z,97849.78
2019-01-26T01:54:29.660Z,97850.13
2019-01-26T01:57:00.821Z,97833.45
2019-01-26T01:59:32.308Z,97841.38
2019-01-26T02:02:03.378Z,97840.89
2019-01-26T02:04:34.438Z,97841.93
2019-01-26T02:07:06.931Z,97839.75
2019-01-26T02:09:38.437Z,97831.20
2019-01-26T02:12:09.941Z,97834.16
2019-01-26T02:14:41.049Z,97826.41
2019-01-26T02:17:13.189Z,97824.77
2019-01-26T02:19:45.320Z,97830.89
2019-01-26T02:22:16.700Z,97833.53
2019-01-26T02:24:47.742Z,97824.94
2019-01-26T02:27:18.930Z,97821.02
2019-01-26T02:29:52.493Z,97817.69
2019-01-26T02:32:23.838Z,97815.91
2019-01-26T02:34:54.845Z,97809.76
2019-01-26T02:37:26.318Z,97811.08
2019-01-26T02:39:57.473Z,97813.72
2019-01-26T02:42:28.704Z,97804.77
2019-01-26T02:45:00.181Z,97808.20
2019-01-26T02:47:31.485Z,97812.16
2019-01-26T02:50:03.065Z,97805.08
2019-01-26T02:52:34.631Z,97813.34
2019-01-26T02:55:06.646Z,97805.42
2019-01-26T02:57:37.745Z,97799.34
2019-01-26T03:00:13.659Z,97801.64
2019-01-26T03:02:44.980Z,97792.50
2019-01-26T03:05:17.334Z,97793.23
2019-01-26T03:07:48.498Z,97800.14
2019-01-26T03:10:22.926Z,97793.23
2019-01-26T03:12:55.058Z,97794.72
2019-01-26T03:15:26.723Z,97793.26
2019-01-26T03:17:59.545Z,97775.27
2019-01-26T03:20:31.293Z,97775.14
2019-01-26T03:23:02.631Z,97770.55
2019-01-26T03:25:34.322Z,97776.13
2019-01-26T03:28:05.669Z,97768.17
2019-01-26T03:30:36.673Z,97767.20
2019-01-26T03:33:08.253Z,97759.78
2019-01-26T03:35:39.568Z,97752.35
2019-01-26T03:38:10.765Z,97749.75
2019-01-26T03:40:43.616Z,97748.10
2019-01-26T03:43:17.048Z,97752.06
2019-01-26T03:45:49.257Z,97744.00
2019-01-26T03:48:20.449Z,97747.61
2019-01-26T03:50:53.724Z,97746.66
2019-01-26T03:53:24.969Z,97745.46
2019-01-26T03:55:56.451Z,97740.69
2019-01-26T03:58:28.890Z,97733.77
2019-01-26T04:01:00.457Z,97731.80
2019-01-26T04:03:31.689Z,97725.02
2019-01-26T04:06:03.526Z,97728.48
2019-01-26T04:08:34.785Z,97716.94
2019-01-26T04:11:05.971Z,97715.78
2019-01-26T04:13:37.256Z,97716.14
2019-01-26T04:16:09.059Z,97719.91
2019-01-26T04:18:40.426Z,97721.24
2019-01-26T04:21:11.421Z,97721.91
2019-01-26T04:23:42.456Z,97719.77
2019-01-26T04:26:13.438Z,97716.80
2019-01-26T04:28:44.616Z,97708.52
2019-01-26T04:31:16.386Z,97713.01
2019-01-26T04:33:51.184Z,97705.06
2019-01-26T04:36:22.314Z,97700.95
2019-01-26T04:38:53.415Z,97691.69
2019-01-26T04:41:24.452Z,97688.88
2019-01-26T04:43:55.545Z,97693.50
2019-01-26T04:46:26.539Z,97689.04
2019-01-26T04:48:57.502Z,97688.37
2019-01-26T04:51:28.832Z,97687.73
2019-01-26T04:54:00.934Z,97684.42
2019-01-26T04:56:32.061Z,97679.45
2019-01-26T04:59:03.469Z,97670.20
2019-01-26T05:01:34.838Z,97672.84
2019-01-26T05:04:06.348Z,97665.07
2019-01-26T05:06:37.690Z,97657.48
2019-01-26T05:09:10.656Z,97651.36
2019-01-26T05:11:41.950Z,97656.13
2019-01-26T05:14:13.794Z,97650.70
2019-01-26T05:16:46.351Z,97651.34
2019-01-26T05:19:17.547Z,97647.22
2019-01-26T05:21:48.548Z,97644.59
2019-01-26T05:24:21.313Z,97637.65
2019-01-26T05:26:52.609Z,97634.83
2019-01-26T05:29:23.720Z,97629.05
2019-01-26T05:31:55.449Z,97624.09
2019-01-26T05:34:27.134Z,97626.89
2019-01-26T05:36:58.276Z,97616.13
2019-01-26T05:39:31.135Z,97615.14
2019-01-26T05:42:02.169Z,97608.53
2019-01-26T05:44:34.356Z,97612.50
2019-01-26T05:47:05.487Z,97605.06
2019-01-26T05:49:36.783Z,97604.88
2019-01-26T05:52:08.608Z,97600.27
2019-01-26T05:54:40.019Z,97598.77
2019-01-26T05:57:11.116Z,97597.28
2019-01-26T05:59:42.200Z,97593.78
2019-01-26T06:02:13.374Z,97587.35
2019-01-26T06:04:44.384Z,97583.05
2019-01-26T06:07:15.629Z,97580.09
2019-01-26T06:09:46.707Z,97574.63
2019-01-26T06:12:18.022Z,97569.70
2019-01-26T06:14:49.061Z,97574.31
2019-01-26T06:17:20.462Z,97564.88
2019-01-26T06:19:52.946Z,97556.97
2019-01-26T06:22:24.704Z,97550.21
2019-01-26T06:24:56.032Z,97545.59
2019-01-26T06:27:27.251Z,97551.01
2019-01-26T06:29:58.423Z,97546.70
2019-01-26T06:32:30.797Z,97544.39
2019-01-26T06:35:01.814Z,97541.41
2019-01-26T06:37:33.016Z,97539.11
2019-01-26T06:40:05.533Z,97540.58
2019-01-26T06:42:36.879Z,97535.93
2019-01-26T06:45:09.078Z,97528.67
2019-01-26T06:47:40.332Z,97527.02
2019-01-26T06:50:14.735Z,97530.64
2019-01-26T06:52:47.675Z,97523.20
2019-01-26T06:55:18.931Z,97521.05
2019-01-26T06:57:51.508Z,97511.94
2019-01-26T07:00:26.204Z,97508.95
2019-01-26T07:02:57.283Z,97505.80
2019-01-26T07:05:48.263Z,97505.80
2019-01-26T07:08:21.208Z,97498.36
2019-01-26T07:10:52.627Z,97491.94
2019-01-26T07:13:23.961Z,97487.78
2019-01-26T07:15:58.696Z,97486.06
2019-01-26T07:18:31.256Z,97483.72
2019-01-26T07:21:03.122Z,97474.62
2019-01-26T07:23:34.259Z,97468.81
2019-01-26T07:26:05.674Z,97460.38
2019-01-26T07:28:36.908Z,97462.05
2019-01-26T07:31:08.143Z,97466.65
2019-01-26T07:33:39.246Z,97456.82
2019-01-26T07:36:11.172Z,97455.94
2019-01-26T07:38:42.648Z,97450.64
2019-01-26T07:41:14.922Z,97447.70
2019-01-26T07:43:46.174Z,97448.94
2019-01-26T07:46:17.645Z,97446.92
2019-01-26T07:48:48.741Z,97442.27
2019-01-26T07:51:20.196Z,97443.66
2019-01-26T07:53:51.382Z,97444.90
2019-01-26T07:56:22.672Z,97438.42
2019-01-26T07:58:53.948Z,97437.07
2019-01-26T08:01:25.286Z,97438.14
2019-01-26T08:03:57.257Z,97444.55
2019-01-26T08:06:28.235Z,97444.80
2019-01-26T08:08:59.500Z,97437.00
2019-01-26T08:11:35.493Z,97436.11
2019-01-26T08:14:08.703Z,97428.92
2019-01-26T08:16:39.960Z,97427.81
2019-01-26T08:19:11.447Z,97420.31
2019-01-26T08:21:42.667Z,97413.98
2019-01-26T08:24:14.743Z,97411.81
2019-01-26T08:26:46.249Z,97407.20
2019-01-26T08:29:19.142Z,97409.52
2019-01-26T08:31:50.915Z,97402.13
2019-01-26T08:34:22.544Z,97395.51
2019-01-26T08:36:54.048Z,97398.73
2019-01-26T08:39:25.398Z,97394.95
2019-01-26T08:41:58.243Z,97398.56
2019-01-26T08:44:29.421Z,97392.91
2019-01-26T08:47:02.249Z,97393.59
2019-01-26T08:49:33.275Z,97380.13
2019-01-26T08:52:04.910Z,97386.41
2019-01-26T08:54:36.094Z,97381.92
2019-01-26T08:57:08.691Z,97372.19
2019-01-26T08:59:39.753Z,97376.03
2019-01-26T09:02:36.023Z,97372.55
2019-01-26T09:05:10.049Z,97362.34
2019-01-26T09:07:44.431Z,97363.50
2019-01-26T09:10:16.731Z,97362.20
2019-01-26T09:12:47.886Z,97357.13
2019-01-26T09:15:19.154Z,97348.66
2019-01-26T09:17:50.219Z,97349.27
2019-01-26T09:20:21.870Z,97352.05
2019-01-26T09:22:53.147Z,97350.48
2019-01-26T09:25:25.086Z,97345.72
2019-01-26T09:27:56.766Z,97343.86
2019-01-26T09:30:28.471Z,97336.28
2019-01-26T09:32:59.815Z,97345.28
2019-01-26T09:35:30.926Z,97342.70
2019-01-26T09:38:02.335Z,97332.27
2019-01-26T09:40:33.473Z,97331.19
2019-01-26T09:43:05.149Z,97337.06
2019-01-26T09:45:36.577Z,97325.33
2019-01-26T09:48:08.045Z,97314.39
2019-01-26T09:50:39.081Z,97308.72
2019-01-26T09:53:10.710Z,97308.34
2019-01-26T09:55:42.120Z,97292.92
2019-01-26T09:58:13.528Z,97299.91
2019-01-26T10:00:45.444Z,97302.00
2019-01-26T10:03:18.108Z,97294.61
2019-01-26T10:05:49.322Z,97281.90
2019-01-26T10:08:22.730Z,97289.55
2019-01-26T10:10:55.369Z,97280.83
2019-01-26T10:13:28.247Z,97273.48
2019-01-26T10:15:59.505Z,97264.89
2019-01-26T10:18:30.950Z,97261.69
2019-01-26T10:21:02.289Z,97257.60
2019-01-26T10:23:33.769Z,97251.19
2019-01-26T10:26:04.864Z,97249.52
2019-01-26T10:28:36.393Z,97248.12
2019-01-26T10:31:07.493Z,97249.31
2019-01-26T10:33:38.795Z,97258.12
2019-01-26T10:36:28.842Z,97253.20
2019-01-26T10:39:04.015Z,97251.48
2019-01-26T10:42:07.370Z,97244.36
2019-01-26T10:44:38.838Z,97240.80
2019-01-26T10:47:09.811Z,97237.20
2019-01-26T10:49:41.166Z,97233.39
2019-01-26T10:52:12.119Z,97240.25
2019-01-26T10:54:43.196Z,97233.50
2019-01-26T10:57:14.316Z,97230.20
2019-01-26T10:59:46.405Z,97222.78
2019-01-26T11:02:18.037Z,97224.05
2019-01-26T11:04:49.974Z,97224.88
2019-01-26T11:07:21.059Z,97222.22
2019-01-26T11:09:52.064Z,97215.75
2019-01-26T11:12:23.713Z,97213.36
2019-01-26T11:14:56.320Z,97222.48
2019-01-26T11:17:27.880Z,97208.25
2019-01-26T11:19:59.089Z,97215.19
2019-01-26T11:22:30.118Z,97214.39
2019-01-26T11:25:01.455Z,97218.50
2019-01-26T11:27:32.607Z,97211.09
2019-01-26T11:30:04.909Z,97204.70
2019-01-26T11:32:36.314Z,97200.77
2019-01-26T11:35:09.218Z,97195.12
2019-01-26T11:37:40.621Z,97199.11
2019-01-26T11:40:18.792Z,97191.85
2019-01-26T11:42:49.819Z,97192.73
2019-01-26T11:45:55.062Z,97192.21
2019-01-26T11:48:32.771Z,97184.02
2019-01-26T11:51:25.673Z,97185.22
2019-01-26T11:53:57.046Z,97182.73
2019-01-26T11:56:35.932Z,97180.14
2019-01-26T11:59:08.884Z,97177.08
2019-01-26T12:01:59.773Z,97180.12
2019-01-26T12:04:46.752Z,97183.27
2019-01-26T12:07:23.370Z,97183.95
2019-01-26T12:09:54.846Z,97177.50
2019-01-26T12:12:26.374Z,97168.33
2019-01-26T12:14:57.898Z,97160.83
2019-01-26T12:17:29.196Z,97162.70
2019-01-26T12:20:01.260Z,97162.11
2019-01-26T12:22:32.609Z,97163.14
2019-01-26T12:25:04.056Z,97151.64
2019-01-26T12:27:35.490Z,97154.23
2019-01-26T12:30:07.931Z,97146.73
2019-01-26T12:32:39.442Z,97145.61
2019-01-26T12:35:12.616Z,97143.85
2019-01-26T12:37:43.912Z,97140.84
2019-01-26T12:40:15.308Z,97135.47
2019-01-26T12:42:46.807Z,97134.09
2019-01-26T12:45:19.310Z,97134.34
2019-01-26T12:47:51.667Z,97128.06
2019-01-26T12:50:24.514Z,97120.34
2019-01-26T12:52:55.814Z,97128.22
2019-01-26T12:55:26.904Z,97131.05
2019-01-26T12:57:58.044Z,97126.67
2019-01-26T13:00:29.598Z,97124.62
2019-01-26T13:03:00.857Z,97126.77
2019-01-26T13:05:31.927Z,97126.59
2019-01-26T13:08:03.769Z,97120.16
2019-01-26T13:10:38.327Z,97112.61
2019-01-26T13:13:09.735Z,97112.33
2019-01-26T13:15:42.140Z,97106.02
2019-01-26T13:18:13.830Z,97103.03
2019-01-26T13:20:46.892Z,97107.95
2019-01-26T13:23:19.310Z,97108.88
2019-01-26T13:25:51.074Z,97111.67
2019-01-26T13:28:22.467Z,97113.26
2019-01-26T13:30:53.897Z,97114.20
2019-01-26T13:33:24.968Z,97107.49
2019-01-26T13:35:56.094Z,97102.53
2019-01-26T13:38:27.460Z,97109.39
2019-01-26T13:40:58.758Z,97103.30
2019-01-26T13:43:29.736Z,97109.17
2019-01-26T13:46:02.699Z,97103.42
2019-01-26T13:48:33.694Z,97095.33
2019-01-26T13:51:12.823Z,97101.08
2019-01-26T13:53:41.047Z,97088.80
2019-01-26T13:56:12.380Z,97081.55
2019-01-26T13:58:43.374Z,97094.04
2019-01-26T14:01:14.565Z,97105.63
2019-01-26T14:03:47.654Z,97102.66
2019-01-26T14:06:19.093Z,97103.41
2019-01-26T14:08:50.132Z,97102.72
2019-01-26T14:11:21.381Z,97100.64
2019-01-26T14:13:52.728Z,97103.75
2019-01-26T14:16:24.106Z,97102.86
2019-01-26T14:18:56.858Z,97099.70
2019-01-26T14:21:27.922Z,97095.62
2019-01-26T14:23:59.406Z,97088.41
2019-01-26T14:26:30.571Z,97090.73
2019-01-26T14:29:04.735Z,97096.61
2019-01-26T14:31:36.319Z,97103.43
2019-01-26T14:34:07.819Z,97100.88
2019-01-26T14:36:38.965Z,97098.24
2019-01-26T14:39:10.698Z,97095.20
2019-01-26T14:41:41.835Z,97100.01
2019-01-26T14:44:13.367Z,97098.24
2019-01-26T14:46:45.231Z,97095.19
2019-01-26T14:49:16.539Z,97092.44
2019-01-26T14:51:47.813Z,97099.07
2019-01-26T14:54:19.148Z,97094.95
2019-01-26T14:56:50.464Z,97092.59
2019-01-26T14:59:24.100Z,97085.23
2019-01-26T15:01:56.634Z,97082.59
2019-01-26T15:04:27.769Z,97077.05
2019-01-26T15:06:58.974Z,97065.83
2019-01-26T15:09:30.341Z,97074.01
2019-01-26T15:12:01.418Z,97069.84
2019-01-26T15:14:33.520Z,97073.72
2019-01-26T15:17:05.221Z,97074.87
2019-01-26T15:19:38.430Z,97074.12
2019-01-26T15:22:10.777Z,97074.72
2019-01-26T15:24:41.772Z,97081.70
2019-01-26T15:27:14.965Z,97073.17
2019-01-26T15:29:46.211Z,97080.88
2019-01-26T15:32:17.455Z,97081.31
2019-01-26T15:34:48.637Z,97082.09
2019-01-26T15:37:22.577Z,97097.08
2019-01-26T15:39:53.726Z,97080.70
2019-01-26T15:42:24.818Z,97091.31
2019-01-26T15:44:56.253Z,97087.88
2019-01-26T15:47:27.531Z,97080.86
2019-01-26T15:49:58.497Z,97091.58
2019-01-26T15:52:29.655Z,97086.27
2019-01-26T15:55:00.802Z,97093.92
2019-01-26T15:57:32.701Z,97091.88
2019-01-26T16:00:04.592Z,97084.84
2019-01-26T16:02:36.807Z,97086.82
2019-01-26T16:05:09.629Z,97092.70
2019-01-26T16:07:42.489Z,97088.31
2019-01-26T16:10:17.493Z,97086.71
2019-01-26T16:12:48.833Z,97088.53
2019-01-26T16:15:22.097Z,97087.50
2019-01-26T16:17:53.416Z,97090.05
2019-01-26T16:20:25.898Z,97097.72
2019-01-26T16:22:58.013Z,97094.31
2019-01-26T16:25:29.414Z,97092.30
2019-01-26T16:28:00.466Z,97093.84
2019-01-26T16:30:32.932Z,97090.16
2019-01-26T16:33:04.811Z,97090.98
2019-01-26T16:35:37.338Z,97099.27
2019-01-26T16:38:09.336Z,97091.02
2019-01-26T16:40:40.478Z,97105.08
2019-01-26T16:43:11.938Z,97109.95
2019-01-26T16:45:42.921Z,97100.77
2019-01-26T16:48:15.843Z,97111.11
2019-01-26T16:50:47.309Z,97097.00
2019-01-26T16:53:18.655Z,97094.89
2019-01-26T16:55:49.832Z,97091.34
2019-01-26T16:58:20.945Z,97092.45
2019-01-26T17:00:56.199Z,97099.20
2019-01-26T17:03:28.479Z,97098.91
2019-01-26T17:05:59.667Z,97093.07
2019-01-26T17:08:30.785Z,97102.41
2019-01-26T17:11:03.200Z,97103.34
2019-01-26T17:13:34.564Z,97101.15
2019-01-26T17:16:05.644Z,97103.63
2019-01-26T17:18:37.020Z,97113.34
2019-01-26T17:21:09.872Z,97114.86
2019-01-26T17:23:41.845Z,97106.42
2019-01-26T17:26:15.870Z,97097.63
2019-01-26T17:28:49.190Z,97101.55
2019-01-26T17:31:20.726Z,97108.36
2019-01-26T17:33:51.737Z,97104.70
2019-01-26T17:36:23.463Z,97107.14
2019-01-26T17:38:55.364Z,97102.87
2019-01-26T17:41:26.973Z,97105.81
2019-01-26T17:43:58.847Z,97108.08
2019-01-26T17:46:32.160Z,97110.73
2019-01-26T17:49:03.166Z,97105.34
2019-01-26T17:51:35.104Z,97103.52
2019-01-26T17:54:06.546Z,97095.15
2019-01-26T17:56:37.684Z,97088.19
2019-01-26T17:59:08.714Z,97088.61
2019-01-26T18:01:40.177Z,97096.47
2019-01-26T18:04:12.256Z,97110.66
2019-01-26T18:06:44.003Z,97107.39
2019-01-26T18:09:15.117Z,97119.27
2019-01-26T18:11:47.674Z,97117.30
2019-01-26T18:14:19.244Z,97107.50
2019-01-26T18:16:50.456Z,97114.86
2019-01-26T18:19:22.090Z,97127.75
2019-01-26T18:21:53.295Z,97115.79
2019-01-26T18:24:25.875Z,97101.61
2019-01-26T18:26:57.399Z,97106.20
2019-01-26T18:29:28.621Z,97111.30
2019-01-26T18:31:59.762Z,97108.57
2019-01-26T18:34:34.641Z,97112.05
2019-01-26T18:37:05.780Z,97112.05
2019-01-26T18:39:38.444Z,97109.17
2019-01-26T18:42:10.779Z,97115.64
2019-01-26T18:44:42.924Z,97122.46
2019-01-26T18:47:14.147Z,97114.89
2019-01-26T18:49:45.306Z,97126.23
2019-01-26T18:52:17.577Z,97125.13
2019-01-26T18:54:48.711Z,97122.57
2019-01-26T18:57:21.750Z,97125.41
2019-01-26T18:59:54.169Z,97127.67
2019-01-26T19:02:25.478Z,97121.64
2019-01-26T19:05:01.895Z,97128.79
2019-01-26T19:07:33.984Z,97120.59
2019-01-26T19:10:06.657Z,97111.91
2019-01-26T19:12:38.696Z,97114.50
2019-01-26T19:15:13.903Z,97118.48
2019-01-26T19:17:44.969Z,97115.11
2019-01-26T19:20:16.660Z,97115.03
2019-01-26T19:22:48.247Z,97119.80
2019-01-26T19:25:19.582Z,97110.72
2019-01-26T19:27:50.771Z,97111.15
2019-01-26T19:30:22.176Z,97114.81
2019-01-26T19:32:54.379Z,97107.16
2019-01-26T19:35:25.832Z,97096.13
2019-01-26T19:37:57.432Z,97106.63
2019-01-26T19:40:28.434Z,97108.09
2019-01-26T19:42:59.613Z,97102.45
2019-01-26T19:45:31.039Z,97107.98
2019-01-26T19:48:02.512Z,97104.39
2019-01-26T19:50:33.736Z,97098.95
2019-01-26T19:53:05.414Z,97105.83
2019-01-26T19:55:36.562Z,97105.62
2019-01-26T19:58:08.143Z,97108.09
2019-01-26T20:00:39.208Z,97111.54
2019-01-26T20:03:10.236Z,97112.87
2019-01-26T20:05:47.883Z,97112.28
2019-01-26T20:08:15.312Z,97114.73
2019-01-26T20:10:47.458Z,97114.44
2019-01-26T20:13:18.738Z,97111.17
2019-01-26T20:15:49.824Z,97106.68
2019-01-26T20:18:22.595Z,97109.36
2019-01-26T20:20:53.821Z,97112.42
2019-01-26T20:23:25.095Z,97102.41
2019-01-26T20:25:56.265Z,97101.19
2019-01-26T20:28:28.352Z,97105.37
2019-01-26T20:30:59.578Z,97095.05
2019-01-26T20:33:30.967Z,97099.66
2019-01-26T20:36:03.727Z,97099.94
2019-01-26T20:38:35.445Z,97106.59
2019-01-26T20:41:07.419Z,97099.45
2019-01-26T20:43:38.733Z,97108.84
2019-01-26T20:46:09.862Z,97101.48
2019-01-26T20:48:41.042Z,97105.37
2019-01-26T20:51:12.161Z,97108.44
2019-01-26T20:53:44.396Z,97099.88
2019-01-26T20:56:15.580Z,97104.25
2019-01-26T20:58:47.625Z,97104.77
2019-01-26T21:01:18.747Z,97101.80
2019-01-26T21:03:49.787Z,97102.11
2019-01-26T21:06:20.979Z,97094.77
2019-01-26T21:08:52.883Z,97099.98
2019-01-26T21:11:24.157Z,97097.61
2019-01-26T21:13:56.618Z,97107.23
2019-01-26T21:16:27.916Z,97104.07
2019-01-26T21:18:58.959Z,97098.03
2019-01-26T21:21:31.866Z,97103.85
2019-01-26T21:24:03.687Z,97108.66
2019-01-26T21:26:35.087Z,97109.67
2019-01-26T21:29:07.674Z,97117.47
2019-01-26T21:31:39.228Z,97116.95
2019-01-26T21:34:10.493Z,97123.09
2019-01-26T21:36:41.762Z,97113.28
2019-01-26T21:39:14.070Z,97114.63
2019-01-26T21:41:45.403Z,97120.45
2019-01-26T21:44:16.632Z,97114.70
2019-01-26T21:46:47.936Z,97117.78
2019-01-26T21:49:19.587Z,97114.63
2019-01-26T21:51:51.618Z,97114.82
2019-01-26T21:54:24.954Z,97114.22
2019-01-26T21:56:58.667Z,97110.42
2019-01-26T21:59:29.985Z,97104.37
2019-01-26T22:02:01.071Z,97103.45
2019-01-26T22:04:32.678Z,97108.47
2019-01-26T22:07:03.857Z,97110.52
2019-01-26T22:09:34.845Z,97115.84
2019-01-26T22:12:05.979Z,97123.51
2019-01-26T22:14:37.315Z,97117.27
2019-01-26T22:17:09.024Z,97115.64
2019-01-26T22:19:40.102Z,97118.91
2019-01-26T22:22:12.513Z,97119.31
2019-01-26T22:24:43.791Z,97125.47
2019-01-26T22:27:15.710Z,97120.14
2019-01-26T22:29:49.737Z,97116.38
2019-01-26T22:32:21.216Z,97111.45
2019-01-26T22:34:52.772Z,97114.31
2019-01-26T22:37:23.793Z,97107.86
2019-01-26T22:39:55.062Z,97113.28
2019-01-26T22:42:26.025Z,97109.51
2019-01-26T22:44:57.350Z,97103.55
2019-01-26T22:47:28.333Z,97111.16
2019-01-26T22:49:59.607Z,97112.58
2019-01-26T22:52:30.818Z,97118.50
2019-01-26T22:55:02.404Z,97116.98
2019-01-26T22:57:35.547Z,97123.92
2019-01-26T23:00:12.695Z,97116.77
2019-01-26T23:02:46.057Z,97120.34
2019-01-26T23:05:38.634Z,97123.52
2019-01-26T23:08:16.389Z,97114.11
2019-01-26T23:11:25.111Z,97111.03
2019-01-26T23:14:36.477Z,97103.87
2019-01-26T23:17:52.514Z,97105.80
2019-01-26T23:20:42.508Z,97100.89
2019-01-26T23:23:41.933Z,97093.64
2019-01-26T23:26:59.893Z,97091.98
2019-01-26T23:29:57.836Z,97095.16
2019-01-26T23:32:29.658Z,97094.55
2019-01-26T23:35:01.098Z,97094.43
2019-01-26T23:37:32.378Z,97095.77
2019-01-26T23:40:05.234Z,97085.75
2019-01-26T23:42:38.603Z,97084.00
2019-01-26T23:45:10.012Z,97079.88
2019-01-26T23:47:42.349Z,97080.80
2019-01-26T23:50:13.634Z,97078.64
2019-01-26T23:52:44.966Z,97081.30
2019-01-26T23:55:16.351Z,97074.64
2019-01-26T23:57:47.487Z,97071.44
